Snohomish County (Paine Field) Airport
KPAE : now visible

Airfield :











YOU CAN JOIN US ON...

 
LOGIN :

Register | Disclaimer

   EN    FR    IT 

 









Legend :    VFR   Marginal VFR   IFR   Intensive IFR   Very Intensive IFR
Visi :
Ceiling :
>= 8 km
>= 3000ft
5 to 8 km
1000 to 3000 ft
1500m to 5 km
500 to 1000 ft
800 to 1500m
200 to 500 ft
< 800m
< 200 ft
Symbols :   Thunderstorms  Fog  Heavy snow  Heavy precipitations  Wind > 20 kt






- Airport Elevation : 606 ft
- IATA code : PAE


KPAE - Snohomish County (Paine Field)

CURRENT METAR :
  • 220102Z 17018G27KT 10SM SCT016 BKN024 OVC029 07/04 A2976 RMK AO2 PK WND 16027/0101 T00670039

EXPIRED METARs :
  • 220053Z 16015G24KT 10SM FEW016 BKN031 OVC046 07/04 A2977 RMK AO2 RAB12E37 SLP082 P0000 T00670044
  • 212353Z AUTO 17016G25KT 10SM FEW018 SCT029 BKN036 07/04 A2975 RMK AO2 PK WND 17032/2307 RAE43 SLP075 P0002 60007 T00670039 10089 20067 53014
  • 212253Z 17021G29KT 9SM -RA BKN024 BKN031 OVC036 08/04 A2972 RMK AO2 PK WND 17034/2206 RAB40 SLP065 P0000 T00780039

TAF KPAE
Valid from the 22 at 00:00 until the 23 at 00:00 UTC


212324Z 2200/2224 16020G30KT 6SM -RA BR BKN025 OVC035
FM220600 18015G22KT P6SM -SHRA OVC020
FM221500 16011KT 4SM -RA BR OVC015



MET'MAP, your aeronautical weather chart ! - Copyright ORBIFLY December 2007 - Disclaimer

ORBIFLY MET'MAP TEAM :

Programming & Development : Alexandra Zaïnal
Concept & original design : Baudouin d'Aumeries
Assistance for programming : Marc-Olivier Méhu
Technical & hardware support : Manuel Goepfert

Contact : metmap@orbifly.com




SOURCES & CREDITS :

   NOAA       Earth
Advisory